sensor_id;sensor_type;location;lat;lon;timestamp;temperature;humidity
20504;DHT22;10410;51.046;6.980;2023-09-08T00:00:24;19.70;99.80
20504;DHT22;10410;51.046;6.980;2023-09-08T00:07:25;19.60;99.90
20504;DHT22;10410;51.046;6.980;2023-09-08T00:14:26;19.50;99.90
20504;DHT22;10410;51.046;6.980;2023-09-08T00:21:26;19.40;99.90
20504;DHT22;10410;51.046;6.980;2023-09-08T00:28:26;19.30;99.90
20504;DHT22;10410;51.046;6.980;2023-09-08T00:35:27;19.20;99.90
20504;DHT22;10410;51.046;6.980;2023-09-08T00:42:27;19.10;99.90
20504;DHT22;10410;51.046;6.980;2023-09-08T00:49:28;19.00;99.90
20504;DHT22;10410;51.046;6.980;2023-09-08T00:56:29;18.80;99.90
20504;DHT22;10410;51.046;6.980;2023-09-08T01:03:29;18.70;99.90
20504;DHT22;10410;51.046;6.980;2023-09-08T01:10:30;18.60;99.90
20504;DHT22;10410;51.046;6.980;2023-09-08T01:17:31;18.50;99.90
20504;DHT22;10410;51.046;6.980;2023-09-08T01:31:53;18.40;99.90
20504;DHT22;10410;51.046;6.980;2023-09-08T01:38:54;18.30;99.90
20504;DHT22;10410;51.046;6.980;2023-09-08T01:45:54;18.20;99.90
20504;DHT22;10410;51.046;6.980;2023-09-08T01:52:55;18.10;99.90
20504;DHT22;10410;51.046;6.980;2023-09-08T01:59:56;18.00;99.90
20504;DHT22;10410;51.046;6.980;2023-09-08T02:06:56;18.00;99.90
20504;DHT22;10410;51.046;6.980;2023-09-08T02:13:57;17.90;99.90
20504;DHT22;10410;51.046;6.980;2023-09-08T02:20:58;17.80;99.90
20504;DHT22;10410;51.046;6.980;2023-09-08T02:27:58;17.70;99.90
20504;DHT22;10410;51.046;6.980;2023-09-08T02:34:59;17.70;99.90
20504;DHT22;10410;51.046;6.980;2023-09-08T02:42:00;17.60;99.90
20504;DHT22;10410;51.046;6.980;2023-09-08T02:49:01;17.50;99.90
20504;DHT22;10410;51.046;6.980;2023-09-08T02:56:01;17.50;99.90
20504;DHT22;10410;51.046;6.980;2023-09-08T03:03:03;17.40;99.90
20504;DHT22;10410;51.046;6.980;2023-09-08T03:10:04;17.30;99.90
20504;DHT22;10410;51.046;6.980;2023-09-08T03:17:05;17.20;99.90
20504;DHT22;10410;51.046;6.980;2023-09-08T03:24:06;17.20;99.90
20504;DHT22;10410;51.046;6.980;2023-09-08T03:31:06;17.10;99.90
20504;DHT22;10410;51.046;6.980;2023-09-08T03:38:08;17.10;99.90
20504;DHT22;10410;51.046;6.980;2023-09-08T03:45:09;17.00;99.90
20504;DHT22;10410;51.046;6.980;2023-09-08T03:52:10;17.00;99.90
20504;DHT22;10410;51.046;6.980;2023-09-08T03:59:10;17.00;99.90
20504;DHT22;10410;51.046;6.980;2023-09-08T04:06:11;16.90;99.90
20504;DHT22;10410;51.046;6.980;2023-09-08T04:13:11;16.80;99.90
20504;DHT22;10410;51.046;6.980;2023-09-08T04:20:12;16.80;99.90
20504;DHT22;10410;51.046;6.980;2023-09-08T04:27:15;16.70;99.90
20504;DHT22;10410;51.046;6.980;2023-09-08T04:34:15;16.70;99.90
20504;DHT22;10410;51.046;6.980;2023-09-08T04:41:16;16.60;99.90
20504;DHT22;10410;51.046;6.980;2023-09-08T04:48:16;16.60;99.90
20504;DHT22;10410;51.046;6.980;2023-09-08T04:55:17;16.60;99.90
20504;DHT22;10410;51.046;6.980;2023-09-08T05:02:20;16.60;99.90
20504;DHT22;10410;51.046;6.980;2023-09-08T05:09:21;16.60;99.90
20504;DHT22;10410;51.046;6.980;2023-09-08T05:16:21;16.60;99.90
20504;DHT22;10410;51.046;6.980;2023-09-08T05:23:38;16.60;99.90
20504;DHT22;10410;51.046;6.980;2023-09-08T05:30:39;16.50;99.90
20504;DHT22;10410;51.046;6.980;2023-09-08T05:37:39;16.60;99.90
20504;DHT22;10410;51.046;6.980;2023-09-08T05:44:40;16.60;99.90
20504;DHT22;10410;51.046;6.980;2023-09-08T05:51:41;16.60;99.90
20504;DHT22;10410;51.046;6.980;2023-09-08T05:58:42;16.70;99.90
20504;DHT22;10410;51.046;6.980;2023-09-08T06:05:43;16.80;99.90
20504;DHT22;10410;51.046;6.980;2023-09-08T06:12:43;16.90;99.90
20504;DHT22;10410;51.046;6.980;2023-09-08T06:19:44;17.00;99.90
20504;DHT22;10410;51.046;6.980;2023-09-08T06:26:45;17.20;99.90
20504;DHT22;10410;51.046;6.980;2023-09-08T06:33:46;17.40;99.90
20504;DHT22;10410;51.046;6.980;2023-09-08T06:40:47;17.70;99.90
20504;DHT22;10410;51.046;6.980;2023-09-08T06:47:48;17.90;99.90
20504;DHT22;10410;51.046;6.980;2023-09-08T06:54:51;18.10;99.90
20504;DHT22;10410;51.046;6.980;2023-09-08T07:01:51;18.20;99.90
20504;DHT22;10410;51.046;6.980;2023-09-08T07:08:53;18.50;99.90
20504;DHT22;10410;51.046;6.980;2023-09-08T07:15:54;18.80;99.90
20504;DHT22;10410;51.046;6.980;2023-09-08T07:22:55;19.10;99.90
20504;DHT22;10410;51.046;6.980;2023-09-08T07:29:56;19.50;99.90
20504;DHT22;10410;51.046;6.980;2023-09-08T07:36:56;19.80;99.90
20504;DHT22;10410;51.046;6.980;2023-09-08T07:43:57;20.10;99.90
20504;DHT22;10410;51.046;6.980;2023-09-08T07:50:58;20.40;99.90
20504;DHT22;10410;51.046;6.980;2023-09-08T07:58:01;20.80;99.90
20504;DHT22;10410;51.046;6.980;2023-09-08T08:05:04;21.10;99.90
20504;DHT22;10410;51.046;6.980;2023-09-08T08:12:04;21.50;99.90
20504;DHT22;10410;51.046;6.980;2023-09-08T08:19:05;21.80;99.90
20504;DHT22;10410;51.046;6.980;2023-09-08T08:26:06;22.10;99.90
20504;DHT22;10410;51.046;6.980;2023-09-08T08:33:07;22.50;99.90
20504;DHT22;10410;51.046;6.980;2023-09-08T08:40:10;22.80;99.90
20504;DHT22;10410;51.046;6.980;2023-09-08T08:47:13;23.20;99.90
20504;DHT22;10410;51.046;6.980;2023-09-08T08:54:16;23.50;99.90
20504;DHT22;10410;51.046;6.980;2023-09-08T09:01:17;23.70;99.90
20504;DHT22;10410;51.046;6.980;2023-09-08T09:08:22;23.90;99.90
20504;DHT22;10410;51.046;6.980;2023-09-08T09:15:31;24.20;99.90
20504;DHT22;10410;51.046;6.980;2023-09-08T09:22:36;24.50;99.90
20504;DHT22;10410;51.046;6.980;2023-09-08T09:29:48;24.70;99.90
20504;DHT22;10410;51.046;6.980;2023-09-08T09:36:50;25.00;99.90
20504;DHT22;10410;51.046;6.980;2023-09-08T09:43:52;25.30;99.90
20504;DHT22;10410;51.046;6.980;2023-09-08T09:50:52;25.40;99.90
20504;DHT22;10410;51.046;6.980;2023-09-08T09:57:58;25.70;99.90
20504;DHT22;10410;51.046;6.980;2023-09-08T10:05:11;25.90;99.90
20504;DHT22;10410;51.046;6.980;2023-09-08T10:12:14;26.20;99.90
20504;DHT22;10410;51.046;6.980;2023-09-08T10:19:17;26.40;99.90
20504;DHT22;10410;51.046;6.980;2023-09-08T10:26:17;26.60;99.90
20504;DHT22;10410;51.046;6.980;2023-09-08T10:33:19;26.70;99.90
20504;DHT22;10410;51.046;6.980;2023-09-08T10:40:24;27.00;99.90
20504;DHT22;10410;51.046;6.980;2023-09-08T10:47:30;27.20;99.90
20504;DHT22;10410;51.046;6.980;2023-09-08T10:54:44;27.40;99.90
20504;DHT22;10410;51.046;6.980;2023-09-08T11:01:47;27.60;99.90
20504;DHT22;10410;51.046;6.980;2023-09-08T11:08:47;27.80;99.90
20504;DHT22;10410;51.046;6.980;2023-09-08T11:15:55;28.10;99.90
20504;DHT22;10410;51.046;6.980;2023-09-08T11:22:56;28.30;99.90
20504;DHT22;10410;51.046;6.980;2023-09-08T11:29:57;28.40;99.90
20504;DHT22;10410;51.046;6.980;2023-09-08T11:36:57;28.70;99.90
20504;DHT22;10410;51.046;6.980;2023-09-08T11:43:57;28.80;99.80
20504;DHT22;10410;51.046;6.980;2023-09-08T11:50:58;29.00;99.50
20504;DHT22;10410;51.046;6.980;2023-09-08T11:57:59;29.20;99.30
20504;DHT22;10410;51.046;6.980;2023-09-08T12:05:05;29.40;99.20
20504;DHT22;10410;51.046;6.980;2023-09-08T12:12:13;29.60;98.60
20504;DHT22;10410;51.046;6.980;2023-09-08T12:19:32;29.80;98.30
20504;DHT22;10410;51.046;6.980;2023-09-08T12:26:32;30.00;97.70
20504;DHT22;10410;51.046;6.980;2023-09-08T12:33:36;30.20;97.30
20504;DHT22;10410;51.046;6.980;2023-09-08T12:40:37;30.40;97.10
20504;DHT22;10410;51.046;6.980;2023-09-08T12:47:38;30.70;96.60
20504;DHT22;10410;51.046;6.980;2023-09-08T12:54:38;31.00;96.10
20504;DHT22;10410;51.046;6.980;2023-09-08T13:01:39;31.20;95.20
20504;DHT22;10410;51.046;6.980;2023-09-08T13:08:40;31.40;94.80
20504;DHT22;10410;51.046;6.980;2023-09-08T13:15:41;31.70;94.60
20504;DHT22;10410;51.046;6.980;2023-09-08T13:22:41;32.20;94.20
20504;DHT22;10410;51.046;6.980;2023-09-08T13:29:42;32.50;93.30
20504;DHT22;10410;51.046;6.980;2023-09-08T13:36:42;32.80;93.10
20504;DHT22;10410;51.046;6.980;2023-09-08T13:43:43;32.90;92.30
20504;DHT22;10410;51.046;6.980;2023-09-08T13:50:46;33.20;91.90
20504;DHT22;10410;51.046;6.980;2023-09-08T13:57:47;33.40;90.80
20504;DHT22;10410;51.046;6.980;2023-09-08T14:04:49;33.70;90.60
20504;DHT22;10410;51.046;6.980;2023-09-08T14:11:55;33.90;89.80
20504;DHT22;10410;51.046;6.980;2023-09-08T14:19:15;34.00;89.20
20504;DHT22;10410;51.046;6.980;2023-09-08T14:26:16;34.20;88.50
20504;DHT22;10410;51.046;6.980;2023-09-08T14:33:17;34.20;85.10
20504;DHT22;10410;51.046;6.980;2023-09-08T14:40:18;34.20;85.20
20504;DHT22;10410;51.046;6.980;2023-09-08T14:47:18;34.50;83.10
20504;DHT22;10410;51.046;6.980;2023-09-08T14:54:19;34.60;82.00
20504;DHT22;10410;51.046;6.980;2023-09-08T15:01:19;34.70;81.00
20504;DHT22;10410;51.046;6.980;2023-09-08T15:08:20;34.90;80.70
20504;DHT22;10410;51.046;6.980;2023-09-08T15:15:20;35.20;79.60
20504;DHT22;10410;51.046;6.980;2023-09-08T15:22:23;35.40;77.70
20504;DHT22;10410;51.046;6.980;2023-09-08T15:29:24;35.40;77.20
20504;DHT22;10410;51.046;6.980;2023-09-08T15:36:25;35.20;78.20
20504;DHT22;10410;51.046;6.980;2023-09-08T15:43:25;34.90;77.90
20504;DHT22;10410;51.046;6.980;2023-09-08T15:50:26;34.60;79.10
20504;DHT22;10410;51.046;6.980;2023-09-08T15:57:27;34.50;79.20
20504;DHT22;10410;51.046;6.980;2023-09-08T16:04:28;34.30;79.70
20504;DHT22;10410;51.046;6.980;2023-09-08T16:11:28;33.90;80.30
20504;DHT22;10410;51.046;6.980;2023-09-08T16:18:30;33.50;81.20
20504;DHT22;10410;51.046;6.980;2023-09-08T16:25:31;33.30;81.60
20504;DHT22;10410;51.046;6.980;2023-09-08T16:32:31;33.00;82.00
20504;DHT22;10410;51.046;6.980;2023-09-08T16:39:32;32.60;82.70
20504;DHT22;10410;51.046;6.980;2023-09-08T16:46:33;32.30;83.20
20504;DHT22;10410;51.046;6.980;2023-09-08T16:53:35;32.00;83.60
20504;DHT22;10410;51.046;6.980;2023-09-08T17:00:35;31.80;84.20
20504;DHT22;10410;51.046;6.980;2023-09-08T17:07:36;31.50;84.80
20504;DHT22;10410;51.046;6.980;2023-09-08T17:14:37;31.20;85.30
20504;DHT22;10410;51.046;6.980;2023-09-08T17:21:37;30.90;86.00
20504;DHT22;10410;51.046;6.980;2023-09-08T17:28:38;30.70;86.50
20504;DHT22;10410;51.046;6.980;2023-09-08T17:35:39;30.50;87.10
20504;DHT22;10410;51.046;6.980;2023-09-08T17:42:39;30.20;87.70
20504;DHT22;10410;51.046;6.980;2023-09-08T17:49:40;30.00;88.40
20504;DHT22;10410;51.046;6.980;2023-09-08T17:56:40;29.80;89.10
20504;DHT22;10410;51.046;6.980;2023-09-08T18:03:41;29.60;89.90
20504;DHT22;10410;51.046;6.980;2023-09-08T18:10:42;29.30;90.30
20504;DHT22;10410;51.046;6.980;2023-09-08T18:17:43;29.00;90.60
20504;DHT22;10410;51.046;6.980;2023-09-08T18:24:45;28.80;91.00
20504;DHT22;10410;51.046;6.980;2023-09-08T18:31:46;28.50;91.30
20504;DHT22;10410;51.046;6.980;2023-09-08T18:38:46;28.20;91.70
20504;DHT22;10410;51.046;6.980;2023-09-08T18:45:47;28.00;91.90
20504;DHT22;10410;51.046;6.980;2023-09-08T18:52:48;27.80;92.30
20504;DHT22;10410;51.046;6.980;2023-09-08T18:59:49;27.50;92.70
20504;DHT22;10410;51.046;6.980;2023-09-08T19:06:49;27.10;93.10
20504;DHT22;10410;51.046;6.980;2023-09-08T19:13:49;26.90;93.50
20504;DHT22;10410;51.046;6.980;2023-09-08T19:20:50;26.60;93.80
20504;DHT22;10410;51.046;6.980;2023-09-08T19:27:51;26.40;94.20
20504;DHT22;10410;51.046;6.980;2023-09-08T19:34:52;26.10;94.50
20504;DHT22;10410;51.046;6.980;2023-09-08T19:41:53;25.90;94.80
20504;DHT22;10410;51.046;6.980;2023-09-08T19:48:53;25.60;95.10
20504;DHT22;10410;51.046;6.980;2023-09-08T19:55:54;25.40;95.50
20504;DHT22;10410;51.046;6.980;2023-09-08T20:02:56;25.20;95.80
20504;DHT22;10410;51.046;6.980;2023-09-08T20:09:57;25.00;96.20
20504;DHT22;10410;51.046;6.980;2023-09-08T20:16:57;24.80;96.50
20504;DHT22;10410;51.046;6.980;2023-09-08T20:23:58;24.60;96.90
20504;DHT22;10410;51.046;6.980;2023-09-08T20:30:58;24.50;97.30
20504;DHT22;10410;51.046;6.980;2023-09-08T20:38:15;24.30;97.70
20504;DHT22;10410;51.046;6.980;2023-09-08T20:45:15;24.10;98.00
20504;DHT22;10410;51.046;6.980;2023-09-08T20:52:16;23.90;98.40
20504;DHT22;10410;51.046;6.980;2023-09-08T20:59:16;23.70;98.70
20504;DHT22;10410;51.046;6.980;2023-09-08T21:06:17;23.50;99.00
20504;DHT22;10410;51.046;6.980;2023-09-08T21:13:20;23.40;99.40
20504;DHT22;10410;51.046;6.980;2023-09-08T21:20:21;23.20;99.60
20504;DHT22;10410;51.046;6.980;2023-09-08T21:27:21;23.10;99.80
20504;DHT22;10410;51.046;6.980;2023-09-08T21:34:22;23.00;99.90
20504;DHT22;10410;51.046;6.980;2023-09-08T21:41:22;22.90;99.90
20504;DHT22;10410;51.046;6.980;2023-09-08T21:48:22;22.80;99.90
20504;DHT22;10410;51.046;6.980;2023-09-08T21:55:23;22.60;99.90
20504;DHT22;10410;51.046;6.980;2023-09-08T22:02:23;22.50;99.90
20504;DHT22;10410;51.046;6.980;2023-09-08T22:09:24;22.40;99.90
20504;DHT22;10410;51.046;6.980;2023-09-08T22:16:25;22.30;99.90
20504;DHT22;10410;51.046;6.980;2023-09-08T22:23:25;22.20;99.90
20504;DHT22;10410;51.046;6.980;2023-09-08T22:30:26;22.20;99.90
20504;DHT22;10410;51.046;6.980;2023-09-08T22:37:26;22.10;99.90
20504;DHT22;10410;51.046;6.980;2023-09-08T22:44:27;22.00;99.90
20504;DHT22;10410;51.046;6.980;2023-09-08T22:51:27;21.90;99.90
20504;DHT22;10410;51.046;6.980;2023-09-08T22:58:41;21.80;99.90
20504;DHT22;10410;51.046;6.980;2023-09-08T23:05:42;21.70;99.90
20504;DHT22;10410;51.046;6.980;2023-09-08T23:12:42;21.60;99.90
20504;DHT22;10410;51.046;6.980;2023-09-08T23:19:42;21.50;99.90
20504;DHT22;10410;51.046;6.980;2023-09-08T23:26:43;21.40;99.90
20504;DHT22;10410;51.046;6.980;2023-09-08T23:33:43;21.40;99.90
20504;DHT22;10410;51.046;6.980;2023-09-08T23:40:46;21.30;99.90
20504;DHT22;10410;51.046;6.980;2023-09-08T23:47:46;21.20;99.90
20504;DHT22;10410;51.046;6.980;2023-09-08T23:54:47;21.10;99.90
